This is the latest recevied weather packets stored in our database for station/object TG5ALY-16. If no packets are shown the sender has not sent any weather packets the latest 1 day(s).
| Time | Temp. | Humidity | Pressure | Rain* | Wind** | Luminosity | Snow |
|---|---|---|---|---|---|---|---|
| 1778110613 | 19.44° C | 75% | 1014 hPa | 0 mm | - | - | - |
| 1778110012 | 19.44° C | 75% | 1013 hPa | 0 mm | - | - | - |
| 1778108811 | 20° C | 73% | 1013 hPa | 0 mm | - | - | - |
| 1778107009 | 22.78° C | 60% | 1013 hPa | 0 mm | - | - | - |
| 1778105207 | 21.67° C | 63% | 1013 hPa | 0 mm | - | - | - |
| 1778102804 | 21.11° C | 68% | 1013 hPa | 0 mm | - | - | - |
| 1778097619 | 24.44° C | 49% | 1013 hPa | 0 mm | - | - | - |
| 1778096418 | 25.56° C | 45% | 1013 hPa | 0 mm | - | - | - |
| 1778094616 | 25.56° C | 25% | 1014 hPa | 0 mm | - | - | - |
| 1778091613 | 23.89° C | 28% | 1015 hPa | 0 mm | - | - | - |
| 1778089811 | 23.89° C | 27% | 1015 hPa | 0 mm | - | - | - |
| 1778088564 | 23.33° C | 24% | 1015 hPa | 0 mm | - | - | - |
| 1778086762 | 19.44° C | 68% | 1015 hPa | 0 mm | - | - | - |
| 1778086161 | 19.44° C | 68% | 1015 hPa | 0 mm | - | - | - |
| 1778083773 | 19.44° C | 65% | 1016 hPa | 0 mm | - | - | - |
| 1778081971 | 18.89° C | 66% | 1016 hPa | 0 mm | - | - | - |
| 1778081370 | 18.89° C | 66% | 1017 hPa | 0 mm | - | - | - |
| 1778079568 | 12.22° C | 94% | 1017 hPa | 0 mm | - | - | - |
| 1778078367 | 16.11° C | 79% | 1017 hPa | 0 mm | - | - | - |
| 1778077766 | 16.11° C | 79% | 1017 hPa | 0 mm | - | - | - |
| 1778076565 | 15.56° C | 80% | 1017 hPa | 0 mm | - | - | - |
| 1778075964 | 11.11° C | 94% | 1017 hPa | 0 mm | - | - | - |
| 1778074763 | 13.33° C | 85% | 1017 hPa | 0 mm | - | - | - |
| 1778072961 | 12.78° C | 86% | 1017 hPa | 0 mm | - | - | - |
| 1778072360 | 12.22° C | 86% | 1018 hPa | 0 mm | - | - | - |
* Rain latest hour (hover to see other rain measurements)
** Current wind speed in m/s (hover to see current wind gust speed)